sensor_id;sensor_type;location;lat;lon;timestamp;P1;durP1;ratioP1;P2;durP2;ratioP2
7191;SDS011;3637;51.494;11.958;2023-11-21T00:00:41;14.07;;;7.80;;
7191;SDS011;3637;51.494;11.958;2023-11-21T00:03:43;12.10;;;7.60;;
7191;SDS011;3637;51.494;11.958;2023-11-21T00:06:47;8.47;;;5.17;;
7191;SDS011;3637;51.494;11.958;2023-11-21T00:09:49;6.37;;;4.63;;
7191;SDS011;3637;51.494;11.958;2023-11-21T00:12:55;7.33;;;4.90;;
7191;SDS011;3637;51.494;11.958;2023-11-21T00:15:57;7.17;;;4.70;;
7191;SDS011;3637;51.494;11.958;2023-11-21T00:18:59;7.10;;;5.03;;
7191;SDS011;3637;51.494;11.958;2023-11-21T00:22:03;7.53;;;4.80;;
7191;SDS011;3637;51.494;11.958;2023-11-21T00:25:06;8.77;;;4.57;;
7191;SDS011;3637;51.494;11.958;2023-11-21T00:28:09;5.20;;;3.93;;
7191;SDS011;3637;51.494;11.958;2023-11-21T00:31:10;8.20;;;3.93;;
7191;SDS011;3637;51.494;11.958;2023-11-21T00:34:13;6.50;;;4.07;;
7191;SDS011;3637;51.494;11.958;2023-11-21T00:37:16;6.10;;;3.73;;
7191;SDS011;3637;51.494;11.958;2023-11-21T00:40:18;7.00;;;4.23;;
7191;SDS011;3637;51.494;11.958;2023-11-21T00:43:21;5.20;;;3.40;;
7191;SDS011;3637;51.494;11.958;2023-11-21T00:46:23;6.13;;;4.17;;
7191;SDS011;3637;51.494;11.958;2023-11-21T00:49:27;7.30;;;3.90;;
7191;SDS011;3637;51.494;11.958;2023-11-21T00:52:30;5.63;;;4.07;;
7191;SDS011;3637;51.494;11.958;2023-11-21T00:55:32;5.73;;;5.10;;
7191;SDS011;3637;51.494;11.958;2023-11-21T00:58:34;7.80;;;6.10;;
7191;SDS011;3637;51.494;11.958;2023-11-21T01:01:37;10.10;;;7.03;;
7191;SDS011;3637;51.494;11.958;2023-11-21T01:04:39;8.23;;;6.03;;
7191;SDS011;3637;51.494;11.958;2023-11-21T01:07:42;12.30;;;7.57;;
7191;SDS011;3637;51.494;11.958;2023-11-21T01:10:44;8.60;;;7.13;;
7191;SDS011;3637;51.494;11.958;2023-11-21T01:13:46;7.63;;;6.30;;
7191;SDS011;3637;51.494;11.958;2023-11-21T01:16:48;7.80;;;6.10;;
7191;SDS011;3637;51.494;11.958;2023-11-21T01:19:50;8.07;;;6.83;;
7191;SDS011;3637;51.494;11.958;2023-11-21T01:22:53;8.83;;;6.77;;
7191;SDS011;3637;51.494;11.958;2023-11-21T01:25:55;11.07;;;6.30;;
7191;SDS011;3637;51.494;11.958;2023-11-21T01:28:58;6.60;;;4.63;;
7191;SDS011;3637;51.494;11.958;2023-11-21T01:31:59;5.60;;;4.70;;
7191;SDS011;3637;51.494;11.958;2023-11-21T01:35:01;7.50;;;4.40;;
7191;SDS011;3637;51.494;11.958;2023-11-21T01:38:07;8.00;;;4.20;;
7191;SDS011;3637;51.494;11.958;2023-11-21T01:41:09;5.03;;;3.67;;
7191;SDS011;3637;51.494;11.958;2023-11-21T01:44:13;5.00;;;3.90;;
7191;SDS011;3637;51.494;11.958;2023-11-21T01:47:15;6.17;;;3.77;;
7191;SDS011;3637;51.494;11.958;2023-11-21T01:50:17;9.33;;;3.50;;
7191;SDS011;3637;51.494;11.958;2023-11-21T01:53:21;7.40;;;5.00;;
7191;SDS011;3637;51.494;11.958;2023-11-21T01:56:25;7.03;;;4.13;;
7191;SDS011;3637;51.494;11.958;2023-11-21T01:59:27;5.50;;;3.70;;
7191;SDS011;3637;51.494;11.958;2023-11-21T02:02:35;5.80;;;3.97;;
7191;SDS011;3637;51.494;11.958;2023-11-21T02:05:36;6.80;;;4.73;;
7191;SDS011;3637;51.494;11.958;2023-11-21T02:08:40;6.63;;;4.63;;
7191;SDS011;3637;51.494;11.958;2023-11-21T02:11:44;6.53;;;4.73;;
7191;SDS011;3637;51.494;11.958;2023-11-21T02:14:46;7.63;;;5.40;;
7191;SDS011;3637;51.494;11.958;2023-11-21T02:17:50;6.07;;;5.03;;
7191;SDS011;3637;51.494;11.958;2023-11-21T02:20:53;5.53;;;4.53;;
7191;SDS011;3637;51.494;11.958;2023-11-21T02:23:56;7.53;;;4.60;;
7191;SDS011;3637;51.494;11.958;2023-11-21T02:26:58;5.47;;;4.03;;
7191;SDS011;3637;51.494;11.958;2023-11-21T02:30:00;5.93;;;4.03;;
7191;SDS011;3637;51.494;11.958;2023-11-21T02:33:04;6.40;;;4.33;;
7191;SDS011;3637;51.494;11.958;2023-11-21T02:36:07;10.43;;;4.93;;
7191;SDS011;3637;51.494;11.958;2023-11-21T02:39:11;5.93;;;4.53;;
7191;SDS011;3637;51.494;11.958;2023-11-21T02:42:13;7.23;;;5.60;;
7191;SDS011;3637;51.494;11.958;2023-11-21T02:45:15;6.67;;;4.63;;
7191;SDS011;3637;51.494;11.958;2023-11-21T02:48:17;7.60;;;4.33;;
7191;SDS011;3637;51.494;11.958;2023-11-21T02:51:19;8.13;;;4.70;;
7191;SDS011;3637;51.494;11.958;2023-11-21T02:54:22;5.30;;;3.93;;
7191;SDS011;3637;51.494;11.958;2023-11-21T02:57:25;6.10;;;4.07;;
7191;SDS011;3637;51.494;11.958;2023-11-21T03:00:26;7.90;;;4.70;;
7191;SDS011;3637;51.494;11.958;2023-11-21T03:03:28;6.60;;;4.83;;
7191;SDS011;3637;51.494;11.958;2023-11-21T03:06:30;7.80;;;4.70;;
7191;SDS011;3637;51.494;11.958;2023-11-21T03:09:33;9.77;;;4.83;;
7191;SDS011;3637;51.494;11.958;2023-11-21T03:12:35;5.60;;;4.10;;
7191;SDS011;3637;51.494;11.958;2023-11-21T03:15:37;6.37;;;4.43;;
7191;SDS011;3637;51.494;11.958;2023-11-21T03:18:39;6.87;;;4.13;;
7191;SDS011;3637;51.494;11.958;2023-11-21T03:21:41;9.67;;;4.77;;
7191;SDS011;3637;51.494;11.958;2023-11-21T03:24:44;7.63;;;4.37;;
7191;SDS011;3637;51.494;11.958;2023-11-21T03:27:46;6.63;;;4.13;;
7191;SDS011;3637;51.494;11.958;2023-11-21T03:30:48;8.20;;;4.53;;
7191;SDS011;3637;51.494;11.958;2023-11-21T03:33:50;5.97;;;4.83;;
7191;SDS011;3637;51.494;11.958;2023-11-21T03:36:56;8.67;;;5.03;;
7191;SDS011;3637;51.494;11.958;2023-11-21T03:40:00;6.90;;;5.13;;
7191;SDS011;3637;51.494;11.958;2023-11-21T03:43:04;10.53;;;5.20;;
7191;SDS011;3637;51.494;11.958;2023-11-21T03:46:06;8.53;;;5.40;;
7191;SDS011;3637;51.494;11.958;2023-11-21T03:49:08;8.33;;;5.27;;
7191;SDS011;3637;51.494;11.958;2023-11-21T03:52:10;7.93;;;5.30;;
7191;SDS011;3637;51.494;11.958;2023-11-21T03:55:14;6.77;;;5.17;;
7191;SDS011;3637;51.494;11.958;2023-11-21T03:58:17;8.90;;;5.43;;
7191;SDS011;3637;51.494;11.958;2023-11-21T04:01:19;7.27;;;5.67;;
7191;SDS011;3637;51.494;11.958;2023-11-21T04:04:22;9.07;;;6.53;;
7191;SDS011;3637;51.494;11.958;2023-11-21T04:07:24;9.00;;;5.73;;
7191;SDS011;3637;51.494;11.958;2023-11-21T04:10:28;8.90;;;6.83;;
7191;SDS011;3637;51.494;11.958;2023-11-21T04:13:30;9.10;;;7.70;;
7191;SDS011;3637;51.494;11.958;2023-11-21T04:16:32;11.20;;;7.70;;
7191;SDS011;3637;51.494;11.958;2023-11-21T04:19:33;8.67;;;7.80;;
7191;SDS011;3637;51.494;11.958;2023-11-21T04:22:36;9.53;;;7.93;;
7191;SDS011;3637;51.494;11.958;2023-11-21T04:25:42;10.23;;;7.57;;
7191;SDS011;3637;51.494;11.958;2023-11-21T04:28:44;11.27;;;6.83;;
7191;SDS011;3637;51.494;11.958;2023-11-21T04:31:46;9.53;;;6.30;;
7191;SDS011;3637;51.494;11.958;2023-11-21T04:34:49;10.53;;;6.40;;
7191;SDS011;3637;51.494;11.958;2023-11-21T04:37:50;8.03;;;5.63;;
7191;SDS011;3637;51.494;11.958;2023-11-21T04:40:54;10.43;;;5.83;;
7191;SDS011;3637;51.494;11.958;2023-11-21T04:43:56;7.80;;;5.90;;
7191;SDS011;3637;51.494;11.958;2023-11-21T04:46:58;7.63;;;5.50;;
7191;SDS011;3637;51.494;11.958;2023-11-21T04:50:00;8.33;;;5.53;;
7191;SDS011;3637;51.494;11.958;2023-11-21T04:53:02;6.87;;;5.70;;
7191;SDS011;3637;51.494;11.958;2023-11-21T04:56:07;9.23;;;5.83;;
7191;SDS011;3637;51.494;11.958;2023-11-21T04:59:09;11.13;;;5.83;;
7191;SDS011;3637;51.494;11.958;2023-11-21T05:02:11;10.87;;;6.10;;
7191;SDS011;3637;51.494;11.958;2023-11-21T05:05:13;8.87;;;6.47;;
7191;SDS011;3637;51.494;11.958;2023-11-21T05:08:15;10.20;;;5.90;;
7191;SDS011;3637;51.494;11.958;2023-11-21T05:11:24;9.47;;;6.23;;
7191;SDS011;3637;51.494;11.958;2023-11-21T05:14:26;11.07;;;6.97;;
7191;SDS011;3637;51.494;11.958;2023-11-21T05:17:28;7.97;;;6.00;;
7191;SDS011;3637;51.494;11.958;2023-11-21T05:20:30;9.87;;;5.63;;
7191;SDS011;3637;51.494;11.958;2023-11-21T05:23:33;10.43;;;6.30;;
7191;SDS011;3637;51.494;11.958;2023-11-21T05:26:36;8.23;;;6.37;;
7191;SDS011;3637;51.494;11.958;2023-11-21T05:29:38;10.33;;;6.87;;
7191;SDS011;3637;51.494;11.958;2023-11-21T05:32:40;10.47;;;6.10;;
7191;SDS011;3637;51.494;11.958;2023-11-21T05:35:43;9.60;;;6.00;;
7191;SDS011;3637;51.494;11.958;2023-11-21T05:38:45;10.77;;;6.87;;
7191;SDS011;3637;51.494;11.958;2023-11-21T05:41:48;12.93;;;6.50;;
7191;SDS011;3637;51.494;11.958;2023-11-21T05:44:50;10.77;;;6.80;;
7191;SDS011;3637;51.494;11.958;2023-11-21T05:47:52;10.60;;;6.70;;
7191;SDS011;3637;51.494;11.958;2023-11-21T05:50:53;9.83;;;6.90;;
7191;SDS011;3637;51.494;11.958;2023-11-21T05:53:55;17.97;;;7.00;;
7191;SDS011;3637;51.494;11.958;2023-11-21T05:56:58;15.60;;;6.73;;
7191;SDS011;3637;51.494;11.958;2023-11-21T06:00:00;11.63;;;6.97;;
7191;SDS011;3637;51.494;11.958;2023-11-21T06:03:09;15.17;;;7.53;;
7191;SDS011;3637;51.494;11.958;2023-11-21T06:06:12;15.33;;;7.03;;
7191;SDS011;3637;51.494;11.958;2023-11-21T06:09:14;12.90;;;6.77;;
7191;SDS011;3637;51.494;11.958;2023-11-21T06:12:17;14.80;;;7.00;;
7191;SDS011;3637;51.494;11.958;2023-11-21T06:15:20;17.73;;;7.77;;
7191;SDS011;3637;51.494;11.958;2023-11-21T06:18:23;16.77;;;7.37;;
7191;SDS011;3637;51.494;11.958;2023-11-21T06:21:25;16.23;;;7.63;;
7191;SDS011;3637;51.494;11.958;2023-11-21T06:24:26;13.17;;;7.47;;
7191;SDS011;3637;51.494;11.958;2023-11-21T06:27:30;15.67;;;7.87;;
7191;SDS011;3637;51.494;11.958;2023-11-21T06:30:32;16.63;;;7.77;;
7191;SDS011;3637;51.494;11.958;2023-11-21T06:33:34;14.73;;;7.37;;
7191;SDS011;3637;51.494;11.958;2023-11-21T06:36:36;21.20;;;8.27;;
7191;SDS011;3637;51.494;11.958;2023-11-21T06:39:38;13.30;;;7.63;;
7191;SDS011;3637;51.494;11.958;2023-11-21T06:42:41;15.90;;;8.50;;
7191;SDS011;3637;51.494;11.958;2023-11-21T06:45:44;19.73;;;8.83;;
7191;SDS011;3637;51.494;11.958;2023-11-21T06:48:46;19.17;;;8.90;;
7191;SDS011;3637;51.494;11.958;2023-11-21T06:51:49;14.73;;;8.83;;
7191;SDS011;3637;51.494;11.958;2023-11-21T06:54:51;18.67;;;8.90;;
7191;SDS011;3637;51.494;11.958;2023-11-21T06:57:54;19.57;;;9.07;;
7191;SDS011;3637;51.494;11.958;2023-11-21T07:00:58;22.17;;;9.53;;
7191;SDS011;3637;51.494;11.958;2023-11-21T07:03:59;20.13;;;9.67;;
7191;SDS011;3637;51.494;11.958;2023-11-21T07:07:01;26.17;;;11.13;;
7191;SDS011;3637;51.494;11.958;2023-11-21T07:10:04;21.07;;;10.47;;
7191;SDS011;3637;51.494;11.958;2023-11-21T07:13:08;29.63;;;12.43;;
7191;SDS011;3637;51.494;11.958;2023-11-21T07:16:12;27.70;;;12.20;;
7191;SDS011;3637;51.494;11.958;2023-11-21T07:19:15;23.43;;;12.30;;
7191;SDS011;3637;51.494;11.958;2023-11-21T07:22:17;30.17;;;13.37;;
7191;SDS011;3637;51.494;11.958;2023-11-21T07:25:21;20.37;;;11.70;;
7191;SDS011;3637;51.494;11.958;2023-11-21T07:28:25;24.30;;;11.53;;
7191;SDS011;3637;51.494;11.958;2023-11-21T07:31:26;21.20;;;10.87;;
7191;SDS011;3637;51.494;11.958;2023-11-21T07:34:29;16.37;;;8.97;;
7191;SDS011;3637;51.494;11.958;2023-11-21T07:37:30;10.03;;;7.07;;
7191;SDS011;3637;51.494;11.958;2023-11-21T07:40:32;9.83;;;6.27;;
7191;SDS011;3637;51.494;11.958;2023-11-21T07:43:36;8.23;;;5.67;;
7191;SDS011;3637;51.494;11.958;2023-11-21T07:46:38;9.80;;;6.53;;
7191;SDS011;3637;51.494;11.958;2023-11-21T07:49:40;8.70;;;6.10;;
7191;SDS011;3637;51.494;11.958;2023-11-21T07:52:43;8.60;;;6.37;;
7191;SDS011;3637;51.494;11.958;2023-11-21T07:55:45;9.90;;;6.27;;
7191;SDS011;3637;51.494;11.958;2023-11-21T07:58:49;7.43;;;5.47;;
7191;SDS011;3637;51.494;11.958;2023-11-21T08:01:50;7.27;;;5.53;;
7191;SDS011;3637;51.494;11.958;2023-11-21T08:04:52;8.93;;;5.70;;
7191;SDS011;3637;51.494;11.958;2023-11-21T08:07:56;8.00;;;5.57;;
7191;SDS011;3637;51.494;11.958;2023-11-21T08:10:58;8.93;;;6.37;;
7191;SDS011;3637;51.494;11.958;2023-11-21T08:14:03;9.00;;;5.93;;
7191;SDS011;3637;51.494;11.958;2023-11-21T08:17:05;9.17;;;6.13;;
7191;SDS011;3637;51.494;11.958;2023-11-21T08:20:07;9.57;;;5.77;;
7191;SDS011;3637;51.494;11.958;2023-11-21T08:23:10;8.23;;;6.03;;
7191;SDS011;3637;51.494;11.958;2023-11-21T08:26:12;8.73;;;6.27;;
7191;SDS011;3637;51.494;11.958;2023-11-21T08:29:19;8.27;;;5.93;;
7191;SDS011;3637;51.494;11.958;2023-11-21T08:32:21;8.53;;;6.07;;
7191;SDS011;3637;51.494;11.958;2023-11-21T08:35:23;8.47;;;6.33;;
7191;SDS011;3637;51.494;11.958;2023-11-21T08:38:25;10.60;;;7.03;;
7191;SDS011;3637;51.494;11.958;2023-11-21T08:41:28;12.60;;;7.60;;
7191;SDS011;3637;51.494;11.958;2023-11-21T08:44:32;11.23;;;7.50;;
7191;SDS011;3637;51.494;11.958;2023-11-21T08:47:34;9.63;;;7.00;;
7191;SDS011;3637;51.494;11.958;2023-11-21T08:50:36;11.57;;;7.67;;
7191;SDS011;3637;51.494;11.958;2023-11-21T08:53:38;11.90;;;7.67;;
7191;SDS011;3637;51.494;11.958;2023-11-21T08:56:40;10.57;;;7.70;;
7191;SDS011;3637;51.494;11.958;2023-11-21T08:59:43;11.27;;;8.43;;
7191;SDS011;3637;51.494;11.958;2023-11-21T09:02:45;12.07;;;7.77;;
7191;SDS011;3637;51.494;11.958;2023-11-21T09:05:47;12.33;;;8.53;;
7191;SDS011;3637;51.494;11.958;2023-11-21T09:08:49;12.43;;;8.97;;
7191;SDS011;3637;51.494;11.958;2023-11-21T09:11:51;14.87;;;10.17;;
7191;SDS011;3637;51.494;11.958;2023-11-21T09:14:54;14.63;;;9.80;;
7191;SDS011;3637;51.494;11.958;2023-11-21T09:17:56;16.20;;;9.40;;
7191;SDS011;3637;51.494;11.958;2023-11-21T09:20:58;15.87;;;9.70;;
7191;SDS011;3637;51.494;11.958;2023-11-21T09:24:00;13.00;;;8.77;;
7191;SDS011;3637;51.494;11.958;2023-11-21T09:27:03;14.20;;;8.90;;
7191;SDS011;3637;51.494;11.958;2023-11-21T09:30:07;13.07;;;9.33;;
7191;SDS011;3637;51.494;11.958;2023-11-21T09:33:10;14.33;;;9.23;;
7191;SDS011;3637;51.494;11.958;2023-11-21T09:36:12;15.87;;;9.57;;
7191;SDS011;3637;51.494;11.958;2023-11-21T09:39:14;12.70;;;8.77;;
7191;SDS011;3637;51.494;11.958;2023-11-21T09:42:19;22.30;;;11.77;;
7191;SDS011;3637;51.494;11.958;2023-11-21T09:45:28;14.90;;;9.83;;
7191;SDS011;3637;51.494;11.958;2023-11-21T09:48:34;14.27;;;9.97;;
7191;SDS011;3637;51.494;11.958;2023-11-21T09:51:38;16.03;;;9.33;;
7191;SDS011;3637;51.494;11.958;2023-11-21T09:54:43;14.03;;;8.80;;
7191;SDS011;3637;51.494;11.958;2023-11-21T09:57:45;13.67;;;8.63;;
7191;SDS011;3637;51.494;11.958;2023-11-21T10:00:52;13.23;;;8.37;;
7191;SDS011;3637;51.494;11.958;2023-11-21T10:03:56;12.90;;;8.70;;
7191;SDS011;3637;51.494;11.958;2023-11-21T10:06:59;14.90;;;9.10;;
7191;SDS011;3637;51.494;11.958;2023-11-21T10:10:01;12.60;;;8.57;;
7191;SDS011;3637;51.494;11.958;2023-11-21T10:13:03;10.53;;;7.87;;
7191;SDS011;3637;51.494;11.958;2023-11-21T10:16:09;13.93;;;8.60;;
7191;SDS011;3637;51.494;11.958;2023-11-21T10:19:14;10.97;;;7.73;;
7191;SDS011;3637;51.494;11.958;2023-11-21T10:22:17;11.93;;;8.43;;
7191;SDS011;3637;51.494;11.958;2023-11-21T10:25:19;13.33;;;8.60;;
7191;SDS011;3637;51.494;11.958;2023-11-21T10:28:21;12.10;;;8.23;;
7191;SDS011;3637;51.494;11.958;2023-11-21T10:31:25;14.27;;;9.17;;
7191;SDS011;3637;51.494;11.958;2023-11-21T10:34:28;11.93;;;7.73;;
7191;SDS011;3637;51.494;11.958;2023-11-21T10:37:30;13.20;;;8.90;;
7191;SDS011;3637;51.494;11.958;2023-11-21T10:40:32;12.23;;;8.73;;
7191;SDS011;3637;51.494;11.958;2023-11-21T10:43:33;13.97;;;8.70;;
7191;SDS011;3637;51.494;11.958;2023-11-21T10:46:37;13.67;;;9.03;;
7191;SDS011;3637;51.494;11.958;2023-11-21T10:49:40;12.87;;;8.43;;
7191;SDS011;3637;51.494;11.958;2023-11-21T10:52:44;11.60;;;8.47;;
7191;SDS011;3637;51.494;11.958;2023-11-21T10:55:47;11.77;;;7.93;;
7191;SDS011;3637;51.494;11.958;2023-11-21T10:58:49;11.40;;;8.37;;
7191;SDS011;3637;51.494;11.958;2023-11-21T11:01:53;12.27;;;7.93;;
7191;SDS011;3637;51.494;11.958;2023-11-21T11:04:58;14.10;;;8.73;;
7191;SDS011;3637;51.494;11.958;2023-11-21T11:08:02;13.27;;;8.73;;
7191;SDS011;3637;51.494;11.958;2023-11-21T11:11:06;10.73;;;8.27;;
7191;SDS011;3637;51.494;11.958;2023-11-21T11:14:10;12.93;;;8.63;;
7191;SDS011;3637;51.494;11.958;2023-11-21T11:17:14;13.93;;;9.80;;
7191;SDS011;3637;51.494;11.958;2023-11-21T11:20:17;13.47;;;9.30;;
7191;SDS011;3637;51.494;11.958;2023-11-21T11:23:28;12.93;;;9.73;;
7191;SDS011;3637;51.494;11.958;2023-11-21T11:26:51;13.77;;;9.70;;
7191;SDS011;3637;51.494;11.958;2023-11-21T11:30:06;16.67;;;11.53;;
7191;SDS011;3637;51.494;11.958;2023-11-21T11:33:21;15.00;;;9.90;;
7191;SDS011;3637;51.494;11.958;2023-11-21T11:36:34;14.93;;;10.30;;
7191;SDS011;3637;51.494;11.958;2023-11-21T11:39:42;14.73;;;10.63;;
7191;SDS011;3637;51.494;11.958;2023-11-21T11:46:02;17.73;;;10.33;;
7191;SDS011;3637;51.494;11.958;2023-11-21T11:49:06;17.87;;;11.23;;
7191;SDS011;3637;51.494;11.958;2023-11-21T11:55:38;16.60;;;11.37;;
7191;SDS011;3637;51.494;11.958;2023-11-21T11:58:40;22.97;;;12.23;;
7191;SDS011;3637;51.494;11.958;2023-11-21T12:01:44;19.67;;;12.03;;
7191;SDS011;3637;51.494;11.958;2023-11-21T12:04:49;22.13;;;12.53;;
7191;SDS011;3637;51.494;11.958;2023-11-21T12:07:57;21.17;;;12.53;;
7191;SDS011;3637;51.494;11.958;2023-11-21T12:11:01;20.50;;;12.27;;
7191;SDS011;3637;51.494;11.958;2023-11-21T12:14:03;20.17;;;12.87;;
7191;SDS011;3637;51.494;11.958;2023-11-21T12:17:06;20.43;;;11.80;;
7191;SDS011;3637;51.494;11.958;2023-11-21T12:20:10;18.33;;;11.70;;
7191;SDS011;3637;51.494;11.958;2023-11-21T12:23:17;18.97;;;12.33;;
7191;SDS011;3637;51.494;11.958;2023-11-21T12:26:19;16.23;;;10.37;;
7191;SDS011;3637;51.494;11.958;2023-11-21T12:29:23;20.03;;;11.67;;
7191;SDS011;3637;51.494;11.958;2023-11-21T12:32:25;16.67;;;11.03;;
7191;SDS011;3637;51.494;11.958;2023-11-21T12:35:29;17.53;;;11.23;;
7191;SDS011;3637;51.494;11.958;2023-11-21T12:38:34;15.47;;;10.53;;
7191;SDS011;3637;51.494;11.958;2023-11-21T12:41:36;15.03;;;10.73;;
7191;SDS011;3637;51.494;11.958;2023-11-21T12:44:38;14.53;;;9.73;;
7191;SDS011;3637;51.494;11.958;2023-11-21T12:47:42;16.47;;;10.13;;
7191;SDS011;3637;51.494;11.958;2023-11-21T12:50:46;17.80;;;9.40;;
7191;SDS011;3637;51.494;11.958;2023-11-21T12:53:53;13.73;;;9.03;;
7191;SDS011;3637;51.494;11.958;2023-11-21T12:56:58;16.13;;;10.23;;
7191;SDS011;3637;51.494;11.958;2023-11-21T13:00:01;12.70;;;8.30;;
7191;SDS011;3637;51.494;11.958;2023-11-21T13:03:11;13.57;;;8.90;;
7191;SDS011;3637;51.494;11.958;2023-11-21T13:06:18;13.63;;;9.20;;
7191;SDS011;3637;51.494;11.958;2023-11-21T13:09:24;14.53;;;9.37;;
7191;SDS011;3637;51.494;11.958;2023-11-21T13:12:27;13.03;;;8.87;;
7191;SDS011;3637;51.494;11.958;2023-11-21T13:15:29;16.40;;;9.43;;
7191;SDS011;3637;51.494;11.958;2023-11-21T13:18:31;13.00;;;8.73;;
7191;SDS011;3637;51.494;11.958;2023-11-21T13:21:34;10.60;;;8.17;;
7191;SDS011;3637;51.494;11.958;2023-11-21T13:24:36;14.83;;;8.60;;
7191;SDS011;3637;51.494;11.958;2023-11-21T13:27:38;11.23;;;7.87;;
7191;SDS011;3637;51.494;11.958;2023-11-21T13:30:41;13.13;;;8.03;;
7191;SDS011;3637;51.494;11.958;2023-11-21T13:33:44;16.57;;;8.20;;
7191;SDS011;3637;51.494;11.958;2023-11-21T13:36:52;13.50;;;8.20;;
7191;SDS011;3637;51.494;11.958;2023-11-21T13:39:58;12.50;;;7.87;;
7191;SDS011;3637;51.494;11.958;2023-11-21T13:43:03;13.57;;;8.50;;
7191;SDS011;3637;51.494;11.958;2023-11-21T13:46:05;12.53;;;8.30;;
7191;SDS011;3637;51.494;11.958;2023-11-21T13:49:13;11.93;;;7.90;;
7191;SDS011;3637;51.494;11.958;2023-11-21T13:52:17;12.10;;;7.80;;
7191;SDS011;3637;51.494;11.958;2023-11-21T13:55:22;12.67;;;7.50;;
7191;SDS011;3637;51.494;11.958;2023-11-21T13:58:25;10.27;;;7.40;;
7191;SDS011;3637;51.494;11.958;2023-11-21T14:01:41;9.47;;;7.57;;
7191;SDS011;3637;51.494;11.958;2023-11-21T14:04:54;12.63;;;7.10;;
7191;SDS011;3637;51.494;11.958;2023-11-21T14:08:01;9.80;;;6.47;;
7191;SDS011;3637;51.494;11.958;2023-11-21T14:11:04;9.10;;;6.97;;
7191;SDS011;3637;51.494;11.958;2023-11-21T14:14:07;9.60;;;6.70;;
7191;SDS011;3637;51.494;11.958;2023-11-21T14:17:09;10.47;;;6.80;;
7191;SDS011;3637;51.494;11.958;2023-11-21T14:20:11;11.17;;;7.20;;
7191;SDS011;3637;51.494;11.958;2023-11-21T14:23:17;11.50;;;6.67;;
7191;SDS011;3637;51.494;11.958;2023-11-21T14:26:21;9.00;;;6.33;;
7191;SDS011;3637;51.494;11.958;2023-11-21T14:29:24;8.90;;;6.60;;
7191;SDS011;3637;51.494;11.958;2023-11-21T14:32:27;7.20;;;5.30;;
7191;SDS011;3637;51.494;11.958;2023-11-21T14:35:29;8.93;;;5.90;;
7191;SDS011;3637;51.494;11.958;2023-11-21T14:38:33;7.83;;;6.10;;
7191;SDS011;3637;51.494;11.958;2023-11-21T14:41:35;7.57;;;5.80;;
7191;SDS011;3637;51.494;11.958;2023-11-21T14:44:39;8.93;;;5.70;;
7191;SDS011;3637;51.494;11.958;2023-11-21T14:47:42;9.43;;;6.60;;
7191;SDS011;3637;51.494;11.958;2023-11-21T14:50:49;9.50;;;7.20;;
7191;SDS011;3637;51.494;11.958;2023-11-21T14:54:14;10.67;;;7.57;;
7191;SDS011;3637;51.494;11.958;2023-11-21T14:57:23;15.43;;;7.57;;
7191;SDS011;3637;51.494;11.958;2023-11-21T15:00:27;12.00;;;7.60;;
7191;SDS011;3637;51.494;11.958;2023-11-21T15:03:44;10.37;;;7.47;;
7191;SDS011;3637;51.494;11.958;2023-11-21T15:06:50;12.20;;;8.03;;
7191;SDS011;3637;51.494;11.958;2023-11-21T15:09:54;12.07;;;8.20;;
7191;SDS011;3637;51.494;11.958;2023-11-21T15:12:56;13.20;;;8.80;;
7191;SDS011;3637;51.494;11.958;2023-11-21T15:15:58;13.33;;;9.60;;
7191;SDS011;3637;51.494;11.958;2023-11-21T15:19:07;13.63;;;9.07;;
7191;SDS011;3637;51.494;11.958;2023-11-21T15:22:09;12.20;;;9.10;;
7191;SDS011;3637;51.494;11.958;2023-11-21T15:25:16;12.17;;;9.50;;
7191;SDS011;3637;51.494;11.958;2023-11-21T15:28:18;13.40;;;9.37;;
7191;SDS011;3637;51.494;11.958;2023-11-21T15:31:20;13.20;;;9.33;;
7191;SDS011;3637;51.494;11.958;2023-11-21T15:34:24;14.17;;;9.63;;
7191;SDS011;3637;51.494;11.958;2023-11-21T15:37:29;14.53;;;10.50;;
7191;SDS011;3637;51.494;11.958;2023-11-21T15:40:32;12.67;;;8.67;;
7191;SDS011;3637;51.494;11.958;2023-11-21T15:43:34;13.73;;;9.60;;
7191;SDS011;3637;51.494;11.958;2023-11-21T15:46:35;10.83;;;8.20;;
7191;SDS011;3637;51.494;11.958;2023-11-21T15:49:39;12.03;;;8.47;;
7191;SDS011;3637;51.494;11.958;2023-11-21T15:52:41;9.70;;;7.50;;
7191;SDS011;3637;51.494;11.958;2023-11-21T15:55:45;9.80;;;7.30;;
7191;SDS011;3637;51.494;11.958;2023-11-21T15:58:47;10.03;;;6.77;;
7191;SDS011;3637;51.494;11.958;2023-11-21T16:01:49;9.90;;;7.17;;
7191;SDS011;3637;51.494;11.958;2023-11-21T16:04:51;9.80;;;6.97;;
7191;SDS011;3637;51.494;11.958;2023-11-21T16:07:53;10.27;;;6.60;;
7191;SDS011;3637;51.494;11.958;2023-11-21T16:10:56;9.00;;;6.67;;
7191;SDS011;3637;51.494;11.958;2023-11-21T16:14:00;8.97;;;6.70;;
7191;SDS011;3637;51.494;11.958;2023-11-21T16:17:02;8.80;;;6.53;;
7191;SDS011;3637;51.494;11.958;2023-11-21T16:20:07;7.03;;;6.03;;
7191;SDS011;3637;51.494;11.958;2023-11-21T16:23:10;9.13;;;5.77;;
7191;SDS011;3637;51.494;11.958;2023-11-21T16:26:14;6.73;;;5.93;;
7191;SDS011;3637;51.494;11.958;2023-11-21T16:29:18;7.33;;;5.80;;
7191;SDS011;3637;51.494;11.958;2023-11-21T16:32:19;10.00;;;5.77;;
7191;SDS011;3637;51.494;11.958;2023-11-21T16:35:21;8.73;;;5.90;;
7191;SDS011;3637;51.494;11.958;2023-11-21T16:38:23;8.57;;;6.23;;
7191;SDS011;3637;51.494;11.958;2023-11-21T16:41:26;8.77;;;5.97;;
7191;SDS011;3637;51.494;11.958;2023-11-21T16:44:29;9.03;;;5.90;;
7191;SDS011;3637;51.494;11.958;2023-11-21T16:47:31;8.83;;;6.10;;
7191;SDS011;3637;51.494;11.958;2023-11-21T16:50:33;8.67;;;6.20;;
7191;SDS011;3637;51.494;11.958;2023-11-21T16:53:35;7.47;;;5.47;;
7191;SDS011;3637;51.494;11.958;2023-11-21T16:56:41;7.77;;;5.73;;
7191;SDS011;3637;51.494;11.958;2023-11-21T16:59:43;8.07;;;5.57;;
7191;SDS011;3637;51.494;11.958;2023-11-21T17:02:50;6.70;;;5.37;;
7191;SDS011;3637;51.494;11.958;2023-11-21T17:05:52;6.40;;;4.83;;
7191;SDS011;3637;51.494;11.958;2023-11-21T17:08:54;6.50;;;5.33;;
7191;SDS011;3637;51.494;11.958;2023-11-21T17:11:58;7.27;;;5.37;;
7191;SDS011;3637;51.494;11.958;2023-11-21T17:15:00;6.40;;;5.40;;
7191;SDS011;3637;51.494;11.958;2023-11-21T17:18:02;9.60;;;5.70;;
7191;SDS011;3637;51.494;11.958;2023-11-21T17:21:05;9.03;;;5.60;;
7191;SDS011;3637;51.494;11.958;2023-11-21T17:24:09;8.33;;;5.50;;
7191;SDS011;3637;51.494;11.958;2023-11-21T17:27:12;6.70;;;5.13;;
7191;SDS011;3637;51.494;11.958;2023-11-21T17:30:14;8.30;;;5.53;;
7191;SDS011;3637;51.494;11.958;2023-11-21T17:33:17;7.60;;;5.10;;
7191;SDS011;3637;51.494;11.958;2023-11-21T17:36:19;6.90;;;5.13;;
7191;SDS011;3637;51.494;11.958;2023-11-21T17:39:21;8.40;;;5.03;;
7191;SDS011;3637;51.494;11.958;2023-11-21T17:42:24;6.20;;;4.87;;
7191;SDS011;3637;51.494;11.958;2023-11-21T17:45:28;8.23;;;5.43;;
7191;SDS011;3637;51.494;11.958;2023-11-21T17:48:30;6.60;;;4.40;;
7191;SDS011;3637;51.494;11.958;2023-11-21T17:51:34;6.70;;;4.73;;
7191;SDS011;3637;51.494;11.958;2023-11-21T17:54:38;6.83;;;4.60;;
7191;SDS011;3637;51.494;11.958;2023-11-21T17:57:43;6.40;;;4.87;;
7191;SDS011;3637;51.494;11.958;2023-11-21T18:00:46;5.33;;;4.50;;
7191;SDS011;3637;51.494;11.958;2023-11-21T18:03:47;6.17;;;4.63;;
7191;SDS011;3637;51.494;11.958;2023-11-21T18:06:50;6.43;;;4.43;;
7191;SDS011;3637;51.494;11.958;2023-11-21T18:09:53;9.57;;;4.47;;
7191;SDS011;3637;51.494;11.958;2023-11-21T18:12:57;5.70;;;4.23;;
7191;SDS011;3637;51.494;11.958;2023-11-21T18:15:59;8.47;;;4.33;;
7191;SDS011;3637;51.494;11.958;2023-11-21T18:19:01;6.20;;;4.53;;
7191;SDS011;3637;51.494;11.958;2023-11-21T18:22:02;5.77;;;4.47;;
7191;SDS011;3637;51.494;11.958;2023-11-21T18:25:06;6.40;;;4.87;;
7191;SDS011;3637;51.494;11.958;2023-11-21T18:28:09;7.47;;;5.23;;
7191;SDS011;3637;51.494;11.958;2023-11-21T18:31:11;8.20;;;4.90;;
7191;SDS011;3637;51.494;11.958;2023-11-21T18:34:15;8.20;;;5.17;;
7191;SDS011;3637;51.494;11.958;2023-11-21T18:37:18;6.87;;;4.67;;